sensor_id;sensor_type;location;lat;lon;timestamp;P1;durP1;ratioP1;P2;durP2;ratioP2
16828;SDS011;8531;48.078;11.968;2023-05-20T00:02:07;5.70;;;5.20;;
16828;SDS011;8531;48.078;11.968;2023-05-20T00:04:32;8.30;;;5.18;;
16828;SDS011;8531;48.078;11.968;2023-05-20T00:06:58;6.20;;;5.60;;
16828;SDS011;8531;48.078;11.968;2023-05-20T00:09:23;6.05;;;5.47;;
16828;SDS011;8531;48.078;11.968;2023-05-20T00:11:49;6.10;;;5.50;;
16828;SDS011;8531;48.078;11.968;2023-05-20T00:14:15;6.63;;;5.93;;
16828;SDS011;8531;48.078;11.968;2023-05-20T00:16:40;7.63;;;5.82;;
16828;SDS011;8531;48.078;11.968;2023-05-20T00:19:07;7.10;;;5.88;;
16828;SDS011;8531;48.078;11.968;2023-05-20T00:21:33;5.68;;;5.15;;
16828;SDS011;8531;48.078;11.968;2023-05-20T00:23:58;6.35;;;5.60;;
16828;SDS011;8531;48.078;11.968;2023-05-20T00:26:24;6.40;;;5.63;;
16828;SDS011;8531;48.078;11.968;2023-05-20T00:28:50;11.05;;;6.07;;
16828;SDS011;8531;48.078;11.968;2023-05-20T00:31:16;7.15;;;5.93;;
16828;SDS011;8531;48.078;11.968;2023-05-20T00:33:42;6.75;;;6.15;;
16828;SDS011;8531;48.078;11.968;2023-05-20T00:36:07;6.75;;;6.07;;
16828;SDS011;8531;48.078;11.968;2023-05-20T00:38:33;6.70;;;5.82;;
16828;SDS011;8531;48.078;11.968;2023-05-20T00:40:59;7.15;;;6.45;;
16828;SDS011;8531;48.078;11.968;2023-05-20T00:43:24;6.72;;;6.13;;
16828;SDS011;8531;48.078;11.968;2023-05-20T00:45:53;6.20;;;5.60;;
16828;SDS011;8531;48.078;11.968;2023-05-20T00:48:20;6.60;;;6.00;;
16828;SDS011;8531;48.078;11.968;2023-05-20T00:50:46;7.10;;;6.32;;
16828;SDS011;8531;48.078;11.968;2023-05-20T00:53:14;7.10;;;6.40;;
16828;SDS011;8531;48.078;11.968;2023-05-20T00:55:42;7.63;;;6.55;;
16828;SDS011;8531;48.078;11.968;2023-05-20T00:58:08;8.10;;;6.13;;
16828;SDS011;8531;48.078;11.968;2023-05-20T01:00:34;6.82;;;6.22;;
16828;SDS011;8531;48.078;11.968;2023-05-20T01:03:00;8.07;;;6.70;;
16828;SDS011;8531;48.078;11.968;2023-05-20T01:05:26;7.60;;;6.80;;
16828;SDS011;8531;48.078;11.968;2023-05-20T01:07:51;7.00;;;6.28;;
16828;SDS011;8531;48.078;11.968;2023-05-20T01:10:17;8.57;;;7.38;;
16828;SDS011;8531;48.078;11.968;2023-05-20T01:12:45;7.55;;;6.85;;
16828;SDS011;8531;48.078;11.968;2023-05-20T01:15:15;7.78;;;7.00;;
16828;SDS011;8531;48.078;11.968;2023-05-20T01:17:47;8.43;;;7.53;;
16828;SDS011;8531;48.078;11.968;2023-05-20T01:20:15;9.82;;;7.50;;
16828;SDS011;8531;48.078;11.968;2023-05-20T01:22:46;9.80;;;7.50;;
16828;SDS011;8531;48.078;11.968;2023-05-20T01:25:12;7.25;;;6.50;;
16828;SDS011;8531;48.078;11.968;2023-05-20T01:27:38;8.80;;;8.00;;
16828;SDS011;8531;48.078;11.968;2023-05-20T01:30:04;9.35;;;8.45;;
16828;SDS011;8531;48.078;11.968;2023-05-20T01:32:31;9.25;;;8.32;;
16828;SDS011;8531;48.078;11.968;2023-05-20T01:35:03;9.15;;;8.35;;
16828;SDS011;8531;48.078;11.968;2023-05-20T01:37:30;9.32;;;8.43;;
16828;SDS011;8531;48.078;11.968;2023-05-20T01:39:56;8.52;;;7.60;;
16828;SDS011;8531;48.078;11.968;2023-05-20T01:42:23;8.98;;;8.07;;
16828;SDS011;8531;48.078;11.968;2023-05-20T01:44:52;8.32;;;7.53;;
16828;SDS011;8531;48.078;11.968;2023-05-20T01:47:17;10.52;;;8.77;;
16828;SDS011;8531;48.078;11.968;2023-05-20T01:49:43;9.23;;;8.32;;
16828;SDS011;8531;48.078;11.968;2023-05-20T01:52:10;10.30;;;9.30;;
16828;SDS011;8531;48.078;11.968;2023-05-20T01:54:36;9.65;;;8.75;;
16828;SDS011;8531;48.078;11.968;2023-05-20T01:57:02;10.65;;;9.55;;
16828;SDS011;8531;48.078;11.968;2023-05-20T01:59:27;10.82;;;9.82;;
16828;SDS011;8531;48.078;11.968;2023-05-20T02:01:53;9.85;;;8.85;;
16828;SDS011;8531;48.078;11.968;2023-05-20T02:04:19;10.45;;;9.45;;
16828;SDS011;8531;48.078;11.968;2023-05-20T02:06:46;9.73;;;8.75;;
16828;SDS011;8531;48.078;11.968;2023-05-20T02:09:12;10.85;;;9.70;;
16828;SDS011;8531;48.078;11.968;2023-05-20T02:11:38;10.73;;;9.65;;
16828;SDS011;8531;48.078;11.968;2023-05-20T02:14:04;10.45;;;9.45;;
16828;SDS011;8531;48.078;11.968;2023-05-20T02:16:29;11.30;;;10.10;;
16828;SDS011;8531;48.078;11.968;2023-05-20T02:18:55;11.13;;;10.02;;
16828;SDS011;8531;48.078;11.968;2023-05-20T02:21:22;11.60;;;10.40;;
16828;SDS011;8531;48.078;11.968;2023-05-20T02:23:49;11.15;;;10.02;;
16828;SDS011;8531;48.078;11.968;2023-05-20T02:26:15;11.25;;;10.07;;
16828;SDS011;8531;48.078;11.968;2023-05-20T02:28:41;11.55;;;10.35;;
16828;SDS011;8531;48.078;11.968;2023-05-20T02:31:10;11.95;;;10.35;;
16828;SDS011;8531;48.078;11.968;2023-05-20T02:33:40;11.77;;;10.57;;
16828;SDS011;8531;48.078;11.968;2023-05-20T02:36:05;13.82;;;11.75;;
16828;SDS011;8531;48.078;11.968;2023-05-20T02:38:31;12.30;;;11.10;;
16828;SDS011;8531;48.078;11.968;2023-05-20T02:40:57;10.82;;;9.63;;
16828;SDS011;8531;48.078;11.968;2023-05-20T02:43:23;12.00;;;9.95;;
16828;SDS011;8531;48.078;11.968;2023-05-20T02:45:50;12.60;;;10.90;;
16828;SDS011;8531;48.078;11.968;2023-05-20T02:48:15;14.57;;;10.80;;
16828;SDS011;8531;48.078;11.968;2023-05-20T02:50:41;12.73;;;11.30;;
16828;SDS011;8531;48.078;11.968;2023-05-20T02:53:08;12.63;;;11.32;;
16828;SDS011;8531;48.078;11.968;2023-05-20T02:55:34;12.82;;;11.63;;
16828;SDS011;8531;48.078;11.968;2023-05-20T02:58:00;13.05;;;11.75;;
16828;SDS011;8531;48.078;11.968;2023-05-20T03:00:26;12.00;;;10.85;;
16828;SDS011;8531;48.078;11.968;2023-05-20T03:02:54;13.63;;;12.23;;
16828;SDS011;8531;48.078;11.968;2023-05-20T03:05:20;12.00;;;10.73;;
16828;SDS011;8531;48.078;11.968;2023-05-20T03:07:46;12.93;;;11.25;;
16828;SDS011;8531;48.078;11.968;2023-05-20T03:10:12;11.82;;;10.63;;
16828;SDS011;8531;48.078;11.968;2023-05-20T03:12:38;13.18;;;11.85;;
16828;SDS011;8531;48.078;11.968;2023-05-20T03:15:04;13.40;;;11.80;;
16828;SDS011;8531;48.078;11.968;2023-05-20T03:17:30;12.18;;;10.98;;
16828;SDS011;8531;48.078;11.968;2023-05-20T03:19:56;10.90;;;9.90;;
16828;SDS011;8531;48.078;11.968;2023-05-20T03:22:22;15.98;;;12.23;;
16828;SDS011;8531;48.078;11.968;2023-05-20T03:24:47;13.02;;;11.73;;
16828;SDS011;8531;48.078;11.968;2023-05-20T03:27:13;14.00;;;12.52;;
16828;SDS011;8531;48.078;11.968;2023-05-20T03:29:38;19.52;;;13.73;;
16828;SDS011;8531;48.078;11.968;2023-05-20T03:32:04;14.38;;;12.82;;
16828;SDS011;8531;48.078;11.968;2023-05-20T03:34:30;15.35;;;13.85;;
16828;SDS011;8531;48.078;11.968;2023-05-20T03:36:56;13.38;;;12.07;;
16828;SDS011;8531;48.078;11.968;2023-05-20T03:39:21;15.40;;;13.90;;
16828;SDS011;8531;48.078;11.968;2023-05-20T03:41:47;15.43;;;13.88;;
16828;SDS011;8531;48.078;11.968;2023-05-20T03:44:13;15.40;;;13.82;;
16828;SDS011;8531;48.078;11.968;2023-05-20T03:46:40;15.05;;;13.45;;
16828;SDS011;8531;48.078;11.968;2023-05-20T03:49:05;17.67;;;15.98;;
16828;SDS011;8531;48.078;11.968;2023-05-20T03:51:31;16.80;;;15.10;;
16828;SDS011;8531;48.078;11.968;2023-05-20T03:53:56;18.02;;;16.23;;
16828;SDS011;8531;48.078;11.968;2023-05-20T03:56:22;17.80;;;15.35;;
16828;SDS011;8531;48.078;11.968;2023-05-20T03:58:48;19.92;;;15.50;;
16828;SDS011;8531;48.078;11.968;2023-05-20T04:01:14;17.70;;;15.18;;
16828;SDS011;8531;48.078;11.968;2023-05-20T04:03:40;17.27;;;15.48;;
16828;SDS011;8531;48.078;11.968;2023-05-20T04:06:08;21.35;;;16.10;;
16828;SDS011;8531;48.078;11.968;2023-05-20T04:08:34;18.85;;;16.90;;
16828;SDS011;8531;48.078;11.968;2023-05-20T04:11:00;22.10;;;14.82;;
16828;SDS011;8531;48.078;11.968;2023-05-20T04:13:27;17.83;;;16.02;;
16828;SDS011;8531;48.078;11.968;2023-05-20T04:15:53;16.83;;;15.13;;
16828;SDS011;8531;48.078;11.968;2023-05-20T04:18:18;16.33;;;14.63;;
16828;SDS011;8531;48.078;11.968;2023-05-20T04:20:44;15.65;;;14.07;;
16828;SDS011;8531;48.078;11.968;2023-05-20T04:23:11;18.85;;;16.25;;
16828;SDS011;8531;48.078;11.968;2023-05-20T04:25:36;17.45;;;15.13;;
16828;SDS011;8531;48.078;11.968;2023-05-20T04:28:02;19.58;;;17.67;;
16828;SDS011;8531;48.078;11.968;2023-05-20T04:30:28;17.55;;;15.77;;
16828;SDS011;8531;48.078;11.968;2023-05-20T04:32:57;16.52;;;14.82;;
16828;SDS011;8531;48.078;11.968;2023-05-20T04:35:23;19.38;;;17.33;;
16828;SDS011;8531;48.078;11.968;2023-05-20T04:37:49;18.65;;;16.35;;
16828;SDS011;8531;48.078;11.968;2023-05-20T04:40:18;21.40;;;17.85;;
16828;SDS011;8531;48.078;11.968;2023-05-20T04:42:43;24.77;;;18.52;;
16828;SDS011;8531;48.078;11.968;2023-05-20T04:45:09;18.17;;;16.15;;
16828;SDS011;8531;48.078;11.968;2023-05-20T04:47:36;19.48;;;17.05;;
16828;SDS011;8531;48.078;11.968;2023-05-20T04:50:06;19.65;;;17.63;;
16828;SDS011;8531;48.078;11.968;2023-05-20T04:52:38;18.70;;;16.67;;
16828;SDS011;8531;48.078;11.968;2023-05-20T04:55:04;20.20;;;18.10;;
16828;SDS011;8531;48.078;11.968;2023-05-20T04:57:33;20.27;;;18.23;;
16828;SDS011;8531;48.078;11.968;2023-05-20T05:00:00;21.02;;;18.83;;
16828;SDS011;8531;48.078;11.968;2023-05-20T05:02:26;23.00;;;18.10;;
16828;SDS011;8531;48.078;11.968;2023-05-20T05:04:51;19.58;;;17.52;;
16828;SDS011;8531;48.078;11.968;2023-05-20T05:07:17;22.25;;;19.88;;
16828;SDS011;8531;48.078;11.968;2023-05-20T05:09:43;24.50;;;19.73;;
16828;SDS011;8531;48.078;11.968;2023-05-20T05:12:08;21.20;;;18.98;;
16828;SDS011;8531;48.078;11.968;2023-05-20T05:14:34;19.20;;;17.30;;
16828;SDS011;8531;48.078;11.968;2023-05-20T05:17:00;17.55;;;15.73;;
16828;SDS011;8531;48.078;11.968;2023-05-20T05:19:25;17.25;;;15.52;;
16828;SDS011;8531;48.078;11.968;2023-05-20T05:21:51;16.73;;;15.02;;
16828;SDS011;8531;48.078;11.968;2023-05-20T05:24:17;14.13;;;12.65;;
16828;SDS011;8531;48.078;11.968;2023-05-20T05:26:42;13.25;;;11.85;;
16828;SDS011;8531;48.078;11.968;2023-05-20T05:29:08;13.13;;;11.82;;
16828;SDS011;8531;48.078;11.968;2023-05-20T05:31:34;13.18;;;11.88;;
16828;SDS011;8531;48.078;11.968;2023-05-20T05:33:59;14.00;;;12.40;;
16828;SDS011;8531;48.078;11.968;2023-05-20T05:36:25;13.55;;;12.15;;
16828;SDS011;8531;48.078;11.968;2023-05-20T05:38:51;13.35;;;12.00;;
16828;SDS011;8531;48.078;11.968;2023-05-20T05:41:16;13.65;;;12.35;;
16828;SDS011;8531;48.078;11.968;2023-05-20T05:43:42;12.77;;;11.52;;
16828;SDS011;8531;48.078;11.968;2023-05-20T05:46:08;12.27;;;11.13;;
16828;SDS011;8531;48.078;11.968;2023-05-20T05:48:35;13.73;;;12.27;;
16828;SDS011;8531;48.078;11.968;2023-05-20T05:51:01;12.63;;;11.43;;
16828;SDS011;8531;48.078;11.968;2023-05-20T05:53:26;11.88;;;10.68;;
16828;SDS011;8531;48.078;11.968;2023-05-20T05:55:52;12.25;;;11.05;;
16828;SDS011;8531;48.078;11.968;2023-05-20T05:58:18;12.10;;;10.90;;
16828;SDS011;8531;48.078;11.968;2023-05-20T06:00:43;12.23;;;11.00;;
16828;SDS011;8531;48.078;11.968;2023-05-20T06:03:09;13.85;;;10.98;;
16828;SDS011;8531;48.078;11.968;2023-05-20T06:05:35;11.70;;;10.57;;
16828;SDS011;8531;48.078;11.968;2023-05-20T06:08:01;12.13;;;10.98;;
16828;SDS011;8531;48.078;11.968;2023-05-20T06:10:26;12.07;;;10.70;;
16828;SDS011;8531;48.078;11.968;2023-05-20T06:12:52;10.88;;;9.77;;
16828;SDS011;8531;48.078;11.968;2023-05-20T06:15:18;10.73;;;9.73;;
16828;SDS011;8531;48.078;11.968;2023-05-20T06:17:43;12.23;;;11.02;;
16828;SDS011;8531;48.078;11.968;2023-05-20T06:20:09;10.98;;;9.77;;
16828;SDS011;8531;48.078;11.968;2023-05-20T06:22:35;10.88;;;9.85;;
16828;SDS011;8531;48.078;11.968;2023-05-20T06:25:01;10.60;;;9.60;;
16828;SDS011;8531;48.078;11.968;2023-05-20T06:27:26;10.40;;;9.43;;
16828;SDS011;8531;48.078;11.968;2023-05-20T06:29:52;11.27;;;9.90;;
16828;SDS011;8531;48.078;11.968;2023-05-20T06:32:18;10.38;;;9.38;;
16828;SDS011;8531;48.078;11.968;2023-05-20T06:34:44;11.30;;;10.18;;
16828;SDS011;8531;48.078;11.968;2023-05-20T06:37:09;9.32;;;8.43;;
16828;SDS011;8531;48.078;11.968;2023-05-20T06:39:35;10.65;;;9.40;;
16828;SDS011;8531;48.078;11.968;2023-05-20T06:42:01;13.45;;;9.10;;
16828;SDS011;8531;48.078;11.968;2023-05-20T06:44:27;16.10;;;9.52;;
16828;SDS011;8531;48.078;11.968;2023-05-20T06:46:55;8.98;;;8.07;;
16828;SDS011;8531;48.078;11.968;2023-05-20T06:49:20;10.10;;;8.45;;
16828;SDS011;8531;48.078;11.968;2023-05-20T06:51:48;9.23;;;8.32;;
16828;SDS011;8531;48.078;11.968;2023-05-20T06:54:13;10.02;;;9.05;;
16828;SDS011;8531;48.078;11.968;2023-05-20T06:56:39;8.80;;;8.00;;
16828;SDS011;8531;48.078;11.968;2023-05-20T06:59:04;10.57;;;8.45;;
16828;SDS011;8531;48.078;11.968;2023-05-20T07:01:30;9.50;;;8.57;;
16828;SDS011;8531;48.078;11.968;2023-05-20T07:03:56;12.48;;;7.50;;
16828;SDS011;8531;48.078;11.968;2023-05-20T07:06:21;11.13;;;9.27;;
16828;SDS011;8531;48.078;11.968;2023-05-20T07:08:47;7.88;;;7.13;;
16828;SDS011;8531;48.078;11.968;2023-05-20T07:11:13;10.65;;;7.82;;
16828;SDS011;8531;48.078;11.968;2023-05-20T07:13:39;7.72;;;6.93;;
16828;SDS011;8531;48.078;11.968;2023-05-20T07:16:04;8.32;;;6.85;;
16828;SDS011;8531;48.078;11.968;2023-05-20T07:18:30;7.40;;;6.70;;
16828;SDS011;8531;48.078;11.968;2023-05-20T07:20:56;7.05;;;6.38;;
16828;SDS011;8531;48.078;11.968;2023-05-20T07:23:22;7.70;;;6.82;;
16828;SDS011;8531;48.078;11.968;2023-05-20T07:25:48;7.85;;;6.70;;
16828;SDS011;8531;48.078;11.968;2023-05-20T07:28:17;7.57;;;6.78;;
16828;SDS011;8531;48.078;11.968;2023-05-20T07:30:45;7.53;;;6.72;;
16828;SDS011;8531;48.078;11.968;2023-05-20T07:33:14;6.70;;;6.10;;
16828;SDS011;8531;48.078;11.968;2023-05-20T07:35:41;10.60;;;6.45;;
16828;SDS011;8531;48.078;11.968;2023-05-20T07:38:07;6.70;;;6.10;;
16828;SDS011;8531;48.078;11.968;2023-05-20T07:40:33;6.47;;;5.72;;
16828;SDS011;8531;48.078;11.968;2023-05-20T07:43:00;9.63;;;6.30;;
16828;SDS011;8531;48.078;11.968;2023-05-20T07:45:26;6.25;;;5.65;;
16828;SDS011;8531;48.078;11.968;2023-05-20T07:47:52;6.97;;;6.38;;
16828;SDS011;8531;48.078;11.968;2023-05-20T07:50:18;6.30;;;5.68;;
16828;SDS011;8531;48.078;11.968;2023-05-20T07:52:43;6.40;;;5.80;;
16828;SDS011;8531;48.078;11.968;2023-05-20T07:55:09;7.40;;;5.80;;
16828;SDS011;8531;48.078;11.968;2023-05-20T07:57:35;6.18;;;5.57;;
16828;SDS011;8531;48.078;11.968;2023-05-20T08:00:01;6.25;;;5.65;;
16828;SDS011;8531;48.078;11.968;2023-05-20T08:02:26;6.40;;;5.75;;
16828;SDS011;8531;48.078;11.968;2023-05-20T08:04:52;5.72;;;5.22;;
16828;SDS011;8531;48.078;11.968;2023-05-20T08:07:18;6.18;;;5.47;;
16828;SDS011;8531;48.078;11.968;2023-05-20T08:09:44;7.20;;;5.00;;
16828;SDS011;8531;48.078;11.968;2023-05-20T08:12:10;6.43;;;4.80;;
16828;SDS011;8531;48.078;11.968;2023-05-20T08:14:36;5.93;;;4.75;;
16828;SDS011;8531;48.078;11.968;2023-05-20T08:17:02;5.63;;;4.57;;
16828;SDS011;8531;48.078;11.968;2023-05-20T08:19:28;6.53;;;4.57;;
16828;SDS011;8531;48.078;11.968;2023-05-20T08:21:53;4.45;;;4.05;;
16828;SDS011;8531;48.078;11.968;2023-05-20T08:24:19;5.57;;;4.38;;
16828;SDS011;8531;48.078;11.968;2023-05-20T08:26:45;6.60;;;4.20;;
16828;SDS011;8531;48.078;11.968;2023-05-20T08:29:10;4.68;;;3.75;;
16828;SDS011;8531;48.078;11.968;2023-05-20T08:31:36;5.88;;;4.13;;
16828;SDS011;8531;48.078;11.968;2023-05-20T08:34:02;4.60;;;4.20;;
16828;SDS011;8531;48.078;11.968;2023-05-20T08:36:27;4.45;;;3.92;;
16828;SDS011;8531;48.078;11.968;2023-05-20T08:38:53;4.00;;;3.60;;
16828;SDS011;8531;48.078;11.968;2023-05-20T08:41:19;5.75;;;3.63;;
16828;SDS011;8531;48.078;11.968;2023-05-20T08:43:46;4.22;;;3.65;;
16828;SDS011;8531;48.078;11.968;2023-05-20T08:46:13;3.47;;;3.17;;
16828;SDS011;8531;48.078;11.968;2023-05-20T08:48:41;3.95;;;3.30;;
16828;SDS011;8531;48.078;11.968;2023-05-20T08:51:08;5.10;;;3.72;;
16828;SDS011;8531;48.078;11.968;2023-05-20T08:53:35;4.40;;;3.38;;
16828;SDS011;8531;48.078;11.968;2023-05-20T08:56:01;4.95;;;2.97;;
16828;SDS011;8531;48.078;11.968;2023-05-20T08:58:30;5.38;;;3.28;;
16828;SDS011;8531;48.078;11.968;2023-05-20T09:00:59;4.05;;;3.45;;
16828;SDS011;8531;48.078;11.968;2023-05-20T09:03:26;3.65;;;3.35;;
16828;SDS011;8531;48.078;11.968;2023-05-20T09:05:52;3.45;;;3.15;;
16828;SDS011;8531;48.078;11.968;2023-05-20T09:08:18;5.35;;;4.30;;
16828;SDS011;8531;48.078;11.968;2023-05-20T09:10:50;4.00;;;3.67;;
16828;SDS011;8531;48.078;11.968;2023-05-20T09:13:17;3.78;;;3.47;;
16828;SDS011;8531;48.078;11.968;2023-05-20T09:15:42;5.80;;;3.50;;
16828;SDS011;8531;48.078;11.968;2023-05-20T09:18:08;4.15;;;3.75;;
16828;SDS011;8531;48.078;11.968;2023-05-20T09:20:35;3.38;;;3.08;;
16828;SDS011;8531;48.078;11.968;2023-05-20T09:23:02;3.70;;;3.40;;
16828;SDS011;8531;48.078;11.968;2023-05-20T09:25:29;4.10;;;3.13;;
16828;SDS011;8531;48.078;11.968;2023-05-20T09:27:55;4.10;;;3.10;;
16828;SDS011;8531;48.078;11.968;2023-05-20T09:30:21;3.70;;;3.38;;
16828;SDS011;8531;48.078;11.968;2023-05-20T09:32:53;5.68;;;3.00;;
16828;SDS011;8531;48.078;11.968;2023-05-20T09:35:21;3.85;;;3.30;;
16828;SDS011;8531;48.078;11.968;2023-05-20T09:37:47;4.03;;;3.28;;
16828;SDS011;8531;48.078;11.968;2023-05-20T09:40:22;6.25;;;3.30;;
16828;SDS011;8531;48.078;11.968;2023-05-20T09:42:51;3.42;;;2.85;;
16828;SDS011;8531;48.078;11.968;2023-05-20T09:45:20;4.10;;;3.15;;
16828;SDS011;8531;48.078;11.968;2023-05-20T09:47:47;3.50;;;3.20;;
16828;SDS011;8531;48.078;11.968;2023-05-20T09:50:16;3.10;;;2.83;;
16828;SDS011;8531;48.078;11.968;2023-05-20T09:52:45;3.38;;;2.97;;
16828;SDS011;8531;48.078;11.968;2023-05-20T09:55:18;4.00;;;3.58;;
16828;SDS011;8531;48.078;11.968;2023-05-20T09:57:46;2.83;;;2.63;;
16828;SDS011;8531;48.078;11.968;2023-05-20T10:00:12;3.58;;;3.22;;
16828;SDS011;8531;48.078;11.968;2023-05-20T10:02:50;5.18;;;3.08;;
16828;SDS011;8531;48.078;11.968;2023-05-20T10:05:18;3.17;;;2.88;;
16828;SDS011;8531;48.078;11.968;2023-05-20T10:13:24;2.95;;;2.75;;
16828;SDS011;8531;48.078;11.968;2023-05-20T10:16:26;6.35;;;2.70;;
16828;SDS011;8531;48.078;11.968;2023-05-20T10:19:00;2.60;;;2.40;;
16828;SDS011;8531;48.078;11.968;2023-05-20T10:21:35;2.90;;;2.63;;
16828;SDS011;8531;48.078;11.968;2023-05-20T10:24:05;3.10;;;2.83;;
16828;SDS011;8531;48.078;11.968;2023-05-20T10:26:37;5.30;;;2.80;;
16828;SDS011;8531;48.078;11.968;2023-05-20T10:29:14;2.78;;;2.30;;
16828;SDS011;8531;48.078;11.968;2023-05-20T10:31:50;2.38;;;2.13;;
16828;SDS011;8531;48.078;11.968;2023-05-20T10:34:20;2.58;;;2.38;;
16828;SDS011;8531;48.078;11.968;2023-05-20T10:39:18;2.60;;;2.40;;
16828;SDS011;8531;48.078;11.968;2023-05-20T10:41:51;2.60;;;2.40;;
16828;SDS011;8531;48.078;11.968;2023-05-20T10:44:16;4.22;;;2.65;;
16828;SDS011;8531;48.078;11.968;2023-05-20T10:46:42;3.22;;;2.17;;
16828;SDS011;8531;48.078;11.968;2023-05-20T10:49:17;4.90;;;2.40;;
16828;SDS011;8531;48.078;11.968;2023-05-20T10:51:44;2.50;;;2.30;;
16828;SDS011;8531;48.078;11.968;2023-05-20T10:54:11;3.47;;;2.30;;
16828;SDS011;8531;48.078;11.968;2023-05-20T10:56:38;2.40;;;2.20;;
16828;SDS011;8531;48.078;11.968;2023-05-20T10:59:14;4.50;;;2.50;;
16828;SDS011;8531;48.078;11.968;2023-05-20T11:01:40;3.08;;;2.42;;
16828;SDS011;8531;48.078;11.968;2023-05-20T11:04:07;2.70;;;2.30;;
16828;SDS011;8531;48.078;11.968;2023-05-20T11:06:33;3.67;;;2.72;;
16828;SDS011;8531;48.078;11.968;2023-05-20T11:09:05;2.85;;;2.58;;
16828;SDS011;8531;48.078;11.968;2023-05-20T11:11:31;3.08;;;2.80;;
16828;SDS011;8531;48.078;11.968;2023-05-20T11:13:56;3.13;;;2.30;;
16828;SDS011;8531;48.078;11.968;2023-05-20T11:16:24;2.10;;;1.90;;
16828;SDS011;8531;48.078;11.968;2023-05-20T11:18:50;3.58;;;1.75;;
16828;SDS011;8531;48.078;11.968;2023-05-20T11:21:17;6.30;;;2.30;;
16828;SDS011;8531;48.078;11.968;2023-05-20T11:23:43;2.40;;;2.20;;
16828;SDS011;8531;48.078;11.968;2023-05-20T11:26:09;3.47;;;2.35;;
16828;SDS011;8531;48.078;11.968;2023-05-20T11:28:35;4.95;;;2.30;;
16828;SDS011;8531;48.078;11.968;2023-05-20T11:31:03;2.97;;;2.67;;
16828;SDS011;8531;48.078;11.968;2023-05-20T11:33:29;4.40;;;2.65;;
16828;SDS011;8531;48.078;11.968;2023-05-20T11:35:55;2.58;;;2.38;;
16828;SDS011;8531;48.078;11.968;2023-05-20T11:38:21;3.80;;;2.95;;
16828;SDS011;8531;48.078;11.968;2023-05-20T11:40:52;5.80;;;2.45;;
16828;SDS011;8531;48.078;11.968;2023-05-20T11:43:19;2.90;;;2.42;;
16828;SDS011;8531;48.078;11.968;2023-05-20T11:45:46;2.72;;;2.53;;
16828;SDS011;8531;48.078;11.968;2023-05-20T11:48:17;3.08;;;2.78;;
16828;SDS011;8531;48.078;11.968;2023-05-20T11:50:44;3.35;;;3.05;;
16828;SDS011;8531;48.078;11.968;2023-05-20T11:53:16;3.08;;;2.78;;
16828;SDS011;8531;48.078;11.968;2023-05-20T11:55:49;3.13;;;2.80;;
16828;SDS011;8531;48.078;11.968;2023-05-20T11:58:19;3.60;;;3.00;;
16828;SDS011;8531;48.078;11.968;2023-05-20T12:00:55;6.55;;;3.63;;
16828;SDS011;8531;48.078;11.968;2023-05-20T12:03:20;4.05;;;3.22;;
16828;SDS011;8531;48.078;11.968;2023-05-20T12:05:46;3.75;;;3.45;;
16828;SDS011;8531;48.078;11.968;2023-05-20T12:08:13;5.28;;;3.55;;
16828;SDS011;8531;48.078;11.968;2023-05-20T12:10:39;5.15;;;3.13;;
16828;SDS011;8531;48.078;11.968;2023-05-20T12:13:05;3.47;;;3.00;;
16828;SDS011;8531;48.078;11.968;2023-05-20T12:15:35;3.97;;;2.90;;
16828;SDS011;8531;48.078;11.968;2023-05-20T12:18:01;3.85;;;3.15;;
16828;SDS011;8531;48.078;11.968;2023-05-20T12:20:27;5.20;;;4.70;;
16828;SDS011;8531;48.078;11.968;2023-05-20T12:22:54;4.53;;;4.13;;
16828;SDS011;8531;48.078;11.968;2023-05-20T12:25:20;5.30;;;4.80;;
16828;SDS011;8531;48.078;11.968;2023-05-20T12:27:46;6.68;;;5.40;;
16828;SDS011;8531;48.078;11.968;2023-05-20T12:30:16;6.43;;;4.88;;
16828;SDS011;8531;48.078;11.968;2023-05-20T12:32:44;4.97;;;4.53;;
16828;SDS011;8531;48.078;11.968;2023-05-20T12:35:11;6.82;;;4.47;;
16828;SDS011;8531;48.078;11.968;2023-05-20T12:37:39;5.70;;;4.20;;
16828;SDS011;8531;48.078;11.968;2023-05-20T12:40:06;5.35;;;4.50;;
16828;SDS011;8531;48.078;11.968;2023-05-20T12:42:39;10.73;;;7.68;;
16828;SDS011;8531;48.078;11.968;2023-05-20T12:45:06;5.80;;;4.80;;
16828;SDS011;8531;48.078;11.968;2023-05-20T12:47:34;4.93;;;4.40;;
16828;SDS011;8531;48.078;11.968;2023-05-20T12:50:00;5.00;;;4.50;;
16828;SDS011;8531;48.078;11.968;2023-05-20T12:52:27;6.93;;;4.78;;
16828;SDS011;8531;48.078;11.968;2023-05-20T12:54:53;6.53;;;4.78;;
16828;SDS011;8531;48.078;11.968;2023-05-20T12:57:20;7.15;;;5.20;;
16828;SDS011;8531;48.078;11.968;2023-05-20T12:59:46;6.68;;;4.95;;
16828;SDS011;8531;48.078;11.968;2023-05-20T13:02:11;8.45;;;5.47;;
16828;SDS011;8531;48.078;11.968;2023-05-20T13:04:37;6.22;;;5.53;;
16828;SDS011;8531;48.078;11.968;2023-05-20T13:07:03;6.00;;;5.50;;
16828;SDS011;8531;48.078;11.968;2023-05-20T13:09:29;5.97;;;5.38;;
16828;SDS011;8531;48.078;11.968;2023-05-20T13:11:54;6.22;;;4.95;;
16828;SDS011;8531;48.078;11.968;2023-05-20T13:14:20;5.82;;;5.28;;
16828;SDS011;8531;48.078;11.968;2023-05-20T13:16:46;5.45;;;4.90;;
16828;SDS011;8531;48.078;11.968;2023-05-20T13:19:13;11.23;;;4.90;;
16828;SDS011;8531;48.078;11.968;2023-05-20T13:21:39;5.55;;;5.05;;
16828;SDS011;8531;48.078;11.968;2023-05-20T13:24:04;6.25;;;5.20;;
16828;SDS011;8531;48.078;11.968;2023-05-20T13:26:30;8.88;;;4.72;;
16828;SDS011;8531;48.078;11.968;2023-05-20T13:28:56;5.63;;;4.82;;
16828;SDS011;8531;48.078;11.968;2023-05-20T13:31:22;5.65;;;5.05;;
16828;SDS011;8531;48.078;11.968;2023-05-20T13:33:48;5.55;;;5.05;;
16828;SDS011;8531;48.078;11.968;2023-05-20T13:36:14;6.68;;;5.00;;
16828;SDS011;8531;48.078;11.968;2023-05-20T13:38:39;5.88;;;5.15;;
16828;SDS011;8531;48.078;11.968;2023-05-20T13:41:05;6.82;;;4.63;;
16828;SDS011;8531;48.078;11.968;2023-05-20T13:43:31;5.07;;;4.45;;
16828;SDS011;8531;48.078;11.968;2023-05-20T13:45:57;6.22;;;5.63;;
16828;SDS011;8531;48.078;11.968;2023-05-20T13:48:23;5.38;;;4.88;;
16828;SDS011;8531;48.078;11.968;2023-05-20T13:50:48;7.07;;;5.50;;
16828;SDS011;8531;48.078;11.968;2023-05-20T13:53:14;5.70;;;5.15;;
16828;SDS011;8531;48.078;11.968;2023-05-20T13:55:40;5.63;;;5.13;;
16828;SDS011;8531;48.078;11.968;2023-05-20T13:58:06;6.18;;;5.40;;
16828;SDS011;8531;48.078;11.968;2023-05-20T14:00:36;5.82;;;5.25;;
16828;SDS011;8531;48.078;11.968;2023-05-20T14:03:02;6.25;;;5.35;;
16828;SDS011;8531;48.078;11.968;2023-05-20T14:05:31;9.15;;;5.70;;
16828;SDS011;8531;48.078;11.968;2023-05-20T14:07:57;7.65;;;5.78;;
16828;SDS011;8531;48.078;11.968;2023-05-20T14:10:24;7.72;;;5.63;;
16828;SDS011;8531;48.078;11.968;2023-05-20T14:12:51;5.53;;;5.03;;
16828;SDS011;8531;48.078;11.968;2023-05-20T14:15:16;6.28;;;5.22;;
16828;SDS011;8531;48.078;11.968;2023-05-20T14:17:42;6.50;;;5.05;;
16828;SDS011;8531;48.078;11.968;2023-05-20T14:20:08;8.30;;;4.80;;
16828;SDS011;8531;48.078;11.968;2023-05-20T14:22:34;5.78;;;5.18;;
16828;SDS011;8531;48.078;11.968;2023-05-20T14:25:00;5.97;;;4.90;;
16828;SDS011;8531;48.078;11.968;2023-05-20T14:27:25;5.65;;;5.15;;
16828;SDS011;8531;48.078;11.968;2023-05-20T14:29:52;6.20;;;5.60;;
16828;SDS011;8531;48.078;11.968;2023-05-20T14:32:17;9.70;;;7.78;;
16828;SDS011;8531;48.078;11.968;2023-05-20T14:34:43;7.85;;;5.20;;
16828;SDS011;8531;48.078;11.968;2023-05-20T14:37:08;6.13;;;5.53;;
16828;SDS011;8531;48.078;11.968;2023-05-20T14:39:36;6.90;;;6.20;;
16828;SDS011;8531;48.078;11.968;2023-05-20T14:42:02;7.88;;;6.03;;
16828;SDS011;8531;48.078;11.968;2023-05-20T14:44:28;8.15;;;5.38;;